sensor_id;sensor_type;location;lat;lon;timestamp;pressure;altitude;pressure_sealevel;temperature;humidity
47636;BME280;33364;50.766;15.338;2023-02-03T00:00:46;95446.63;;;-2.75;76.35
47636;BME280;33364;50.766;15.338;2023-02-03T00:03:29;95452.25;;;-2.62;76.82
47636;BME280;33364;50.766;15.338;2023-02-03T00:05:55;95455.63;;;-2.69;75.42
47636;BME280;33364;50.766;15.338;2023-02-03T00:08:21;95453.09;;;-2.61;75.70
47636;BME280;33364;50.766;15.338;2023-02-03T00:10:48;95458.34;;;-2.53;75.03
47636;BME280;33364;50.766;15.338;2023-02-03T00:13:14;95457.53;;;-2.71;75.99
47636;BME280;33364;50.766;15.338;2023-02-03T00:15:40;95463.88;;;-2.74;76.14
47636;BME280;33364;50.766;15.338;2023-02-03T00:18:05;95460.38;;;-2.65;76.46
47636;BME280;33364;50.766;15.338;2023-02-03T00:20:31;95457.78;;;-2.65;76.27
47636;BME280;33364;50.766;15.338;2023-02-03T00:23:05;95449.06;;;-2.55;76.02
47636;BME280;33364;50.766;15.338;2023-02-03T00:25:31;95448.16;;;-2.46;76.02
47636;BME280;33364;50.766;15.338;2023-02-03T00:27:57;95443.25;;;-2.49;75.47
47636;BME280;33364;50.766;15.338;2023-02-03T00:30:23;95444.28;;;-2.42;77.27
47636;BME280;33364;50.766;15.338;2023-02-03T00:32:48;95447.75;;;-2.33;77.36
47636;BME280;33364;50.766;15.338;2023-02-03T00:35:14;95455.88;;;-2.36;77.35
47636;BME280;33364;50.766;15.338;2023-02-03T00:37:40;95450.38;;;-2.33;76.89
47636;BME280;33364;50.766;15.338;2023-02-03T00:40:06;95450.56;;;-2.27;76.77
47636;BME280;33364;50.766;15.338;2023-02-03T00:42:35;95450.13;;;-2.22;77.40
47636;BME280;33364;50.766;15.338;2023-02-03T00:45:01;95449.81;;;-2.19;76.18
47636;BME280;33364;50.766;15.338;2023-02-03T00:47:27;95449.69;;;-2.35;75.15
47636;BME280;33364;50.766;15.338;2023-02-03T00:49:53;95444.69;;;-2.55;75.62
47636;BME280;33364;50.766;15.338;2023-02-03T00:52:19;95442.25;;;-2.74;76.84
47636;BME280;33364;50.766;15.338;2023-02-03T00:54:45;95444.97;;;-2.58;78.21
47636;BME280;33364;50.766;15.338;2023-02-03T00:57:10;95446.56;;;-2.39;78.20
47636;BME280;33364;50.766;15.338;2023-02-03T00:59:36;95447.63;;;-2.32;76.67
47636;BME280;33364;50.766;15.338;2023-02-03T01:02:02;95443.88;;;-2.29;76.53
47636;BME280;33364;50.766;15.338;2023-02-03T01:04:28;95434.34;;;-2.47;76.29
47636;BME280;33364;50.766;15.338;2023-02-03T01:06:53;95434.28;;;-2.55;76.52
47636;BME280;33364;50.766;15.338;2023-02-03T01:09:22;95424.53;;;-2.53;77.59
47636;BME280;33364;50.766;15.338;2023-02-03T01:11:48;95425.09;;;-2.41;78.62
47636;BME280;33364;50.766;15.338;2023-02-03T01:14:14;95424.69;;;-2.28;79.15
47636;BME280;33364;50.766;15.338;2023-02-03T01:16:40;95417.63;;;-2.10;78.33
47636;BME280;33364;50.766;15.338;2023-02-03T01:19:06;95411.81;;;-2.04;77.25
47636;BME280;33364;50.766;15.338;2023-02-03T01:21:32;95407.38;;;-2.11;76.51
47636;BME280;33364;50.766;15.338;2023-02-03T01:23:58;95404.38;;;-2.25;76.00
47636;BME280;33364;50.766;15.338;2023-02-03T01:26:25;95400.72;;;-2.40;76.70
47636;BME280;33364;50.766;15.338;2023-02-03T01:28:57;95393.88;;;-2.41;76.74
47636;BME280;33364;50.766;15.338;2023-02-03T01:31:31;95374.69;;;-2.40;76.75
47636;BME280;33364;50.766;15.338;2023-02-03T01:34:00;95374.63;;;-2.22;78.35
47636;BME280;33364;50.766;15.338;2023-02-03T01:36:27;95375.78;;;-2.16;77.56
47636;BME280;33364;50.766;15.338;2023-02-03T01:38:54;95371.81;;;-2.03;78.17
47636;BME280;33364;50.766;15.338;2023-02-03T01:41:22;95363.97;;;-2.11;76.77
47636;BME280;33364;50.766;15.338;2023-02-03T01:43:51;95365.88;;;-2.13;77.50
47636;BME280;33364;50.766;15.338;2023-02-03T01:48:43;95355.53;;;-1.96;77.21
47636;BME280;33364;50.766;15.338;2023-02-03T01:51:09;95349.06;;;-1.92;77.34
47636;BME280;33364;50.766;15.338;2023-02-03T01:53:35;95336.06;;;-1.84;77.14
47636;BME280;33364;50.766;15.338;2023-02-03T01:56:02;95329.69;;;-1.81;77.13
47636;BME280;33364;50.766;15.338;2023-02-03T01:58:31;95331.31;;;-1.89;76.15
47636;BME280;33364;50.766;15.338;2023-02-03T02:00:59;95320.88;;;-1.97;77.01
47636;BME280;33364;50.766;15.338;2023-02-03T02:03:41;95313.88;;;-1.96;77.31
47636;BME280;33364;50.766;15.338;2023-02-03T02:06:11;95306.44;;;-1.91;78.17
47636;BME280;33364;50.766;15.338;2023-02-03T02:08:39;95300.88;;;-1.88;76.87
47636;BME280;33364;50.766;15.338;2023-02-03T02:11:06;95296.81;;;-1.91;76.17
47636;BME280;33364;50.766;15.338;2023-02-03T02:13:33;95290.59;;;-1.98;76.85
47636;BME280;33364;50.766;15.338;2023-02-03T02:16:15;95302.19;;;-1.92;77.85
47636;BME280;33364;50.766;15.338;2023-02-03T02:19:04;95304.66;;;-1.82;78.23
47636;BME280;33364;50.766;15.338;2023-02-03T02:24:52;95299.00;;;-1.70;77.04
47636;BME280;33364;50.766;15.338;2023-02-03T02:36:11;95268.53;;;-1.61;76.59
47636;BME280;33364;50.766;15.338;2023-02-03T02:41:14;95245.41;;;-1.64;77.74
47636;BME280;33364;50.766;15.338;2023-02-03T02:43:47;95242.97;;;-1.66;76.24
47636;BME280;33364;50.766;15.338;2023-02-03T02:46:23;95247.00;;;-1.88;76.96
47636;BME280;33364;50.766;15.338;2023-02-03T02:49:03;95237.22;;;-1.94;77.54
47636;BME280;33364;50.766;15.338;2023-02-03T02:51:33;95227.63;;;-1.93;77.64
47636;BME280;33364;50.766;15.338;2023-02-03T02:54:06;95234.94;;;-1.97;77.94
47636;BME280;33364;50.766;15.338;2023-02-03T02:56:35;95223.72;;;-1.89;79.32
47636;BME280;33364;50.766;15.338;2023-02-03T02:59:04;95220.16;;;-1.80;79.00
47636;BME280;33364;50.766;15.338;2023-02-03T03:01:31;95227.81;;;-1.70;79.48
47636;BME280;33364;50.766;15.338;2023-02-03T03:03:59;95216.91;;;-1.66;78.84
47636;BME280;33364;50.766;15.338;2023-02-03T03:06:31;95207.66;;;-1.60;78.37
47636;BME280;33364;50.766;15.338;2023-02-03T03:09:11;95206.34;;;-1.56;78.16
47636;BME280;33364;50.766;15.338;2023-02-03T03:11:42;95195.91;;;-1.56;77.27
47636;BME280;33364;50.766;15.338;2023-02-03T03:14:10;95200.00;;;-1.53;78.00
47636;BME280;33364;50.766;15.338;2023-02-03T03:16:38;95194.63;;;-1.52;78.49
47636;BME280;33364;50.766;15.338;2023-02-03T03:19:09;95197.38;;;-1.53;77.77
47636;BME280;33364;50.766;15.338;2023-02-03T03:21:42;95199.34;;;-1.47;79.17
47636;BME280;33364;50.766;15.338;2023-02-03T03:24:26;95195.75;;;-1.46;77.76
47636;BME280;33364;50.766;15.338;2023-02-03T03:27:05;95188.25;;;-1.49;78.39
47636;BME280;33364;50.766;15.338;2023-02-03T03:29:38;95178.66;;;-1.49;79.32
47636;BME280;33364;50.766;15.338;2023-02-03T03:32:05;95181.75;;;-1.45;79.35
47636;BME280;33364;50.766;15.338;2023-02-03T03:34:31;95180.28;;;-1.56;78.22
47636;BME280;33364;50.766;15.338;2023-02-03T03:37:13;95187.75;;;-1.44;80.39
47636;BME280;33364;50.766;15.338;2023-02-03T03:47:26;95178.50;;;-1.47;78.27
47636;BME280;33364;50.766;15.338;2023-02-03T03:49:56;95171.97;;;-1.35;79.85
47636;BME280;33364;50.766;15.338;2023-02-03T03:52:28;95177.00;;;-1.41;78.89
47636;BME280;33364;50.766;15.338;2023-02-03T03:54:56;95174.25;;;-1.40;79.71
47636;BME280;33364;50.766;15.338;2023-02-03T03:57:47;95168.22;;;-1.49;78.70
47636;BME280;33364;50.766;15.338;2023-02-03T04:00:17;95167.56;;;-1.59;79.12
47636;BME280;33364;50.766;15.338;2023-02-03T04:02:49;95175.38;;;-1.51;81.39
47636;BME280;33364;50.766;15.338;2023-02-03T04:05:16;95181.91;;;-1.63;79.35
47636;BME280;33364;50.766;15.338;2023-02-03T04:07:44;95180.28;;;-1.64;79.96
47636;BME280;33364;50.766;15.338;2023-02-03T04:12:41;95168.09;;;-1.63;79.88
47636;BME280;33364;50.766;15.338;2023-02-03T04:15:07;95166.44;;;-1.73;79.60
47636;BME280;33364;50.766;15.338;2023-02-03T04:17:33;95165.28;;;-1.62;79.77
47636;BME280;33364;50.766;15.338;2023-02-03T04:20:02;95168.41;;;-1.67;80.57
47636;BME280;33364;50.766;15.338;2023-02-03T04:22:28;95164.81;;;-1.66;80.56
47636;BME280;33364;50.766;15.338;2023-02-03T04:24:54;95160.59;;;-1.67;80.20
47636;BME280;33364;50.766;15.338;2023-02-03T04:27:24;95153.09;;;-1.70;80.51
47636;BME280;33364;50.766;15.338;2023-02-03T04:29:50;95151.94;;;-1.67;79.87
47636;BME280;33364;50.766;15.338;2023-02-03T04:32:16;95150.34;;;-1.68;79.69
47636;BME280;33364;50.766;15.338;2023-02-03T04:34:42;95141.84;;;-1.62;81.46
47636;BME280;33364;50.766;15.338;2023-02-03T04:37:07;95140.72;;;-1.59;80.02
47636;BME280;33364;50.766;15.338;2023-02-03T04:39:33;95133.53;;;-1.66;80.29
47636;BME280;33364;50.766;15.338;2023-02-03T04:41:59;95119.84;;;-1.51;80.48
47636;BME280;33364;50.766;15.338;2023-02-03T04:44:27;95118.75;;;-1.65;80.35
47636;BME280;33364;50.766;15.338;2023-02-03T04:46:53;95118.19;;;-1.44;82.30
47636;BME280;33364;50.766;15.338;2023-02-03T04:49:18;95110.56;;;-1.54;79.68
47636;BME280;33364;50.766;15.338;2023-02-03T04:51:47;95108.78;;;-1.45;81.20
47636;BME280;33364;50.766;15.338;2023-02-03T04:54:13;95103.88;;;-1.48;80.67
47636;BME280;33364;50.766;15.338;2023-02-03T04:56:39;95090.84;;;-1.40;80.06
47636;BME280;33364;50.766;15.338;2023-02-03T04:59:04;95082.25;;;-1.49;79.02
47636;BME280;33364;50.766;15.338;2023-02-03T05:01:30;95075.72;;;-1.53;79.24
47636;BME280;33364;50.766;15.338;2023-02-03T05:03:56;95063.34;;;-1.59;79.46
47636;BME280;33364;50.766;15.338;2023-02-03T05:06:23;95056.53;;;-1.60;81.27
47636;BME280;33364;50.766;15.338;2023-02-03T05:08:51;95045.91;;;-1.42;82.01
47636;BME280;33364;50.766;15.338;2023-02-03T05:11:17;95051.59;;;-1.38;80.17
47636;BME280;33364;50.766;15.338;2023-02-03T05:13:42;95056.66;;;-1.45;78.89
47636;BME280;33364;50.766;15.338;2023-02-03T05:16:08;95052.59;;;-1.56;80.07
47636;BME280;33364;50.766;15.338;2023-02-03T05:18:34;95062.53;;;-1.51;80.31
47636;BME280;33364;50.766;15.338;2023-02-03T05:21:00;95058.94;;;-1.42;80.38
47636;BME280;33364;50.766;15.338;2023-02-03T05:23:26;95055.31;;;-1.41;80.34
47636;BME280;33364;50.766;15.338;2023-02-03T05:25:52;95053.72;;;-1.42;80.30
47636;BME280;33364;50.766;15.338;2023-02-03T05:28:17;95055.63;;;-1.27;80.84
47636;BME280;33364;50.766;15.338;2023-02-03T05:30:43;95039.31;;;-1.30;81.03
47636;BME280;33364;50.766;15.338;2023-02-03T05:33:09;95041.09;;;-1.22;79.74
47636;BME280;33364;50.766;15.338;2023-02-03T05:35:35;95028.97;;;-1.46;78.88
47636;BME280;33364;50.766;15.338;2023-02-03T05:38:01;95025.44;;;-1.61;79.89
47636;BME280;33364;50.766;15.338;2023-02-03T05:40:27;95027.88;;;-1.60;80.56
47636;BME280;33364;50.766;15.338;2023-02-03T05:43:11;95032.03;;;-1.42;80.96
47636;BME280;33364;50.766;15.338;2023-02-03T05:45:38;95029.13;;;-1.48;79.81
47636;BME280;33364;50.766;15.338;2023-02-03T05:48:03;95027.66;;;-1.42;80.28
47636;BME280;33364;50.766;15.338;2023-02-03T05:50:30;95018.50;;;-1.38;80.57
47636;BME280;33364;50.766;15.338;2023-02-03T05:52:59;95018.63;;;-1.31;79.54
47636;BME280;33364;50.766;15.338;2023-02-03T05:55:27;95014.63;;;-1.42;79.64
47636;BME280;33364;50.766;15.338;2023-02-03T05:57:53;95023.72;;;-1.38;81.52
47636;BME280;33364;50.766;15.338;2023-02-03T06:00:20;95016.72;;;-1.37;80.36
47636;BME280;33364;50.766;15.338;2023-02-03T06:02:53;95009.69;;;-1.28;80.64
47636;BME280;33364;50.766;15.338;2023-02-03T06:05:20;95002.97;;;-1.23;80.22
47636;BME280;33364;50.766;15.338;2023-02-03T06:07:47;95001.91;;;-1.37;79.10
47636;BME280;33364;50.766;15.338;2023-02-03T06:10:13;94993.44;;;-1.39;79.74
47636;BME280;33364;50.766;15.338;2023-02-03T06:12:39;94994.84;;;-1.28;80.35
47636;BME280;33364;50.766;15.338;2023-02-03T06:15:06;94994.69;;;-1.26;80.13
47636;BME280;33364;50.766;15.338;2023-02-03T06:17:32;94999.94;;;-1.35;79.82
47636;BME280;33364;50.766;15.338;2023-02-03T06:19:58;94994.25;;;-1.38;79.17
47636;BME280;33364;50.766;15.338;2023-02-03T06:22:24;94996.03;;;-1.39;81.02
47636;BME280;33364;50.766;15.338;2023-02-03T06:24:50;94992.09;;;-1.35;80.22
47636;BME280;33364;50.766;15.338;2023-02-03T06:27:15;94989.28;;;-1.25;80.65
47636;BME280;33364;50.766;15.338;2023-02-03T06:29:41;94987.31;;;-1.23;80.08
47636;BME280;33364;50.766;15.338;2023-02-03T06:32:08;94981.59;;;-1.18;81.51
47636;BME280;33364;50.766;15.338;2023-02-03T06:34:34;94979.94;;;-1.11;80.09
47636;BME280;33364;50.766;15.338;2023-02-03T06:37:00;94986.53;;;-1.23;79.24
47636;BME280;33364;50.766;15.338;2023-02-03T06:39:26;94991.72;;;-1.23;79.91
47636;BME280;33364;50.766;15.338;2023-02-03T06:41:52;94998.59;;;-1.22;80.67
47636;BME280;33364;50.766;15.338;2023-02-03T06:44:18;94997.41;;;-1.20;80.66
47636;BME280;33364;50.766;15.338;2023-02-03T06:46:43;95001.78;;;-1.12;80.90
47636;BME280;33364;50.766;15.338;2023-02-03T06:49:09;94994.94;;;-1.13;80.48
47636;BME280;33364;50.766;15.338;2023-02-03T06:51:35;94980.94;;;-1.12;80.34
47636;BME280;33364;50.766;15.338;2023-02-03T06:54:01;94971.19;;;-1.18;79.15
47636;BME280;33364;50.766;15.338;2023-02-03T06:56:28;94972.22;;;-1.27;79.53
47636;BME280;33364;50.766;15.338;2023-02-03T06:58:55;94960.69;;;-1.41;79.63
47636;BME280;33364;50.766;15.338;2023-02-03T07:01:20;94949.59;;;-1.35;81.12
47636;BME280;33364;50.766;15.338;2023-02-03T07:03:46;94945.44;;;-1.21;80.94
47636;BME280;33364;50.766;15.338;2023-02-03T07:06:13;94947.97;;;-1.05;80.80
47636;BME280;33364;50.766;15.338;2023-02-03T07:08:39;94947.09;;;-0.97;79.92
47636;BME280;33364;50.766;15.338;2023-02-03T07:11:06;94940.78;;;-1.03;79.49
47636;BME280;33364;50.766;15.338;2023-02-03T07:13:32;94932.66;;;-1.08;79.82
47636;BME280;33364;50.766;15.338;2023-02-03T07:15:57;94915.69;;;-1.04;79.85
47636;BME280;33364;50.766;15.338;2023-02-03T07:18:23;94922.53;;;-1.03;79.70
47636;BME280;33364;50.766;15.338;2023-02-03T07:20:51;94922.00;;;-0.98;79.56
47636;BME280;33364;50.766;15.338;2023-02-03T07:23:18;94922.59;;;-0.88;79.62
47636;BME280;33364;50.766;15.338;2023-02-03T07:25:44;94907.84;;;-0.81;79.79
47636;BME280;33364;50.766;15.338;2023-02-03T07:28:10;94906.59;;;-0.85;79.20
47636;BME280;33364;50.766;15.338;2023-02-03T07:30:35;94908.38;;;-0.85;79.25
47636;BME280;33364;50.766;15.338;2023-02-03T07:33:02;94901.16;;;-0.75;80.77
47636;BME280;33364;50.766;15.338;2023-02-03T07:35:27;94889.91;;;-0.61;80.89
47636;BME280;33364;50.766;15.338;2023-02-03T07:37:53;94879.84;;;-0.64;78.58
47636;BME280;33364;50.766;15.338;2023-02-03T07:40:19;94883.44;;;-0.65;79.21
47636;BME280;33364;50.766;15.338;2023-02-03T07:42:47;94875.16;;;-0.68;78.73
47636;BME280;33364;50.766;15.338;2023-02-03T07:45:15;94879.91;;;-0.72;78.70
47636;BME280;33364;50.766;15.338;2023-02-03T07:47:42;94892.16;;;-0.72;78.62
47636;BME280;33364;50.766;15.338;2023-02-03T07:50:10;94891.91;;;-0.63;78.90
47636;BME280;33364;50.766;15.338;2023-02-03T07:52:36;94886.06;;;-0.65;77.89
47636;BME280;33364;50.766;15.338;2023-02-03T07:55:03;94898.00;;;-0.70;78.70
47636;BME280;33364;50.766;15.338;2023-02-03T07:57:29;94888.28;;;-0.77;78.52
47636;BME280;33364;50.766;15.338;2023-02-03T07:59:54;94886.94;;;-0.72;79.01
47636;BME280;33364;50.766;15.338;2023-02-03T08:02:20;94872.38;;;-0.67;79.53
47636;BME280;33364;50.766;15.338;2023-02-03T08:04:46;94867.19;;;-0.52;79.87
47636;BME280;33364;50.766;15.338;2023-02-03T08:07:12;94871.50;;;-0.44;79.77
47636;BME280;33364;50.766;15.338;2023-02-03T08:09:37;94874.00;;;-0.51;78.50
47636;BME280;33364;50.766;15.338;2023-02-03T08:12:03;94868.16;;;-0.53;78.86
47636;BME280;33364;50.766;15.338;2023-02-03T08:14:29;94853.44;;;-0.46;79.44
47636;BME280;33364;50.766;15.338;2023-02-03T08:16:56;94859.81;;;-0.48;78.70
47636;BME280;33364;50.766;15.338;2023-02-03T08:19:21;94850.53;;;-0.51;78.69
47636;BME280;33364;50.766;15.338;2023-02-03T08:21:47;94851.53;;;-0.37;79.88
47636;BME280;33364;50.766;15.338;2023-02-03T08:24:13;94842.59;;;-0.43;78.01
47636;BME280;33364;50.766;15.338;2023-02-03T08:26:39;94836.59;;;-0.43;78.02
47636;BME280;33364;50.766;15.338;2023-02-03T08:29:05;94831.81;;;-0.40;80.00
47636;BME280;33364;50.766;15.338;2023-02-03T08:31:32;94829.13;;;-0.46;78.35
47636;BME280;33364;50.766;15.338;2023-02-03T08:33:58;94827.34;;;-0.46;79.54
47636;BME280;33364;50.766;15.338;2023-02-03T08:36:24;94817.16;;;-0.41;78.74
47636;BME280;33364;50.766;15.338;2023-02-03T08:38:50;94818.94;;;-0.41;78.38
47636;BME280;33364;50.766;15.338;2023-02-03T08:41:16;94819.88;;;-0.34;78.21
47636;BME280;33364;50.766;15.338;2023-02-03T08:43:43;94809.06;;;-0.16;79.18
47636;BME280;33364;50.766;15.338;2023-02-03T08:46:11;94804.00;;;-0.17;77.91
47636;BME280;33364;50.766;15.338;2023-02-03T08:48:40;94808.41;;;-0.18;77.27
47636;BME280;33364;50.766;15.338;2023-02-03T08:51:11;94811.94;;;-0.26;77.70
47636;BME280;33364;50.766;15.338;2023-02-03T08:53:38;94816.41;;;-0.34;78.08
47636;BME280;33364;50.766;15.338;2023-02-03T08:56:09;94810.31;;;-0.42;78.38
47636;BME280;33364;50.766;15.338;2023-02-03T08:58:36;94815.09;;;-0.45;77.91
47636;BME280;33364;50.766;15.338;2023-02-03T09:03:32;94801.69;;;-0.27;78.68
47636;BME280;33364;50.766;15.338;2023-02-03T09:05:58;94809.50;;;-0.27;78.47
47636;BME280;33364;50.766;15.338;2023-02-03T09:08:25;94803.84;;;-0.31;78.73
47636;BME280;33364;50.766;15.338;2023-02-03T09:10:51;94801.41;;;-0.17;79.37
47636;BME280;33364;50.766;15.338;2023-02-03T09:13:16;94802.13;;;-0.24;77.25
47636;BME280;33364;50.766;15.338;2023-02-03T09:15:42;94788.97;;;-0.30;77.44
47636;BME280;33364;50.766;15.338;2023-02-03T09:18:08;94783.66;;;-0.37;78.33
47636;BME280;33364;50.766;15.338;2023-02-03T09:20:34;94783.66;;;-0.37;78.95
47636;BME280;33364;50.766;15.338;2023-02-03T09:23:00;94777.38;;;-0.28;79.49
47636;BME280;33364;50.766;15.338;2023-02-03T09:25:26;94773.75;;;-0.27;79.29
47636;BME280;33364;50.766;15.338;2023-02-03T09:27:52;94771.66;;;-0.16;79.00
47636;BME280;33364;50.766;15.338;2023-02-03T09:30:18;94755.47;;;-0.12;78.33
47636;BME280;33364;50.766;15.338;2023-02-03T09:32:44;94756.28;;;-0.11;77.37
47636;BME280;33364;50.766;15.338;2023-02-03T09:35:14;94748.28;;;-0.25;78.16
47636;BME280;33364;50.766;15.338;2023-02-03T09:37:39;94752.88;;;-0.27;79.44
47636;BME280;33364;50.766;15.338;2023-02-03T09:40:06;94734.66;;;-0.20;78.43
47636;BME280;33364;50.766;15.338;2023-02-03T09:47:42;94717.47;;;-0.14;78.48
47636;BME280;33364;50.766;15.338;2023-02-03T09:50:35;94711.44;;;-0.15;78.90
47636;BME280;33364;50.766;15.338;2023-02-03T09:53:09;94709.28;;;-0.11;79.40
47636;BME280;33364;50.766;15.338;2023-02-03T09:55:41;94711.41;;;0.00;79.43
47636;BME280;33364;50.766;15.338;2023-02-03T10:00:45;94701.97;;;0.21;80.88
47636;BME280;33364;50.766;15.338;2023-02-03T10:03:34;94691.16;;;0.24;78.65
47636;BME280;33364;50.766;15.338;2023-02-03T10:09:06;94681.56;;;0.09;77.86
47636;BME280;33364;50.766;15.338;2023-02-03T10:14:39;94669.81;;;-0.16;78.36
47636;BME280;33364;50.766;15.338;2023-02-03T10:20:15;94650.38;;;0.08;79.85
47636;BME280;33364;50.766;15.338;2023-02-03T10:22:50;94630.44;;;0.22;79.75
47636;BME280;33364;50.766;15.338;2023-02-03T10:25:19;94632.88;;;0.23;78.13
47636;BME280;33364;50.766;15.338;2023-02-03T10:27:55;94633.22;;;0.20;79.45
47636;BME280;33364;50.766;15.338;2023-02-03T10:30:26;94624.56;;;0.20;78.27
47636;BME280;33364;50.766;15.338;2023-02-03T10:32:59;94617.25;;;0.08;79.16
47636;BME280;33364;50.766;15.338;2023-02-03T10:36:03;94611.25;;;0.14;78.59
47636;BME280;33364;50.766;15.338;2023-02-03T10:38:36;94600.16;;;0.06;77.74
47636;BME280;33364;50.766;15.338;2023-02-03T10:41:04;94591.28;;;0.00;79.60
47636;BME280;33364;50.766;15.338;2023-02-03T10:43:31;94579.44;;;0.04;79.30
47636;BME280;33364;50.766;15.338;2023-02-03T10:46:17;94569.84;;;0.11;79.04
47636;BME280;33364;50.766;15.338;2023-02-03T10:48:44;94563.16;;;0.02;79.20
47636;BME280;33364;50.766;15.338;2023-02-03T10:51:23;94562.63;;;0.13;80.17
47636;BME280;33364;50.766;15.338;2023-02-03T10:53:49;94558.22;;;0.14;79.36
47636;BME280;33364;50.766;15.338;2023-02-03T10:58:56;94552.34;;;0.33;80.85
47636;BME280;33364;50.766;15.338;2023-02-03T11:01:44;94546.31;;;0.33;79.63
47636;BME280;33364;50.766;15.338;2023-02-03T11:04:29;94534.78;;;0.27;78.91
47636;BME280;33364;50.766;15.338;2023-02-03T11:07:00;94528.97;;;0.25;77.55
47636;BME280;33364;50.766;15.338;2023-02-03T11:09:35;94521.06;;;0.18;78.53
47636;BME280;33364;50.766;15.338;2023-02-03T11:12:19;94523.00;;;0.10;78.66
47636;BME280;33364;50.766;15.338;2023-02-03T11:14:50;94522.66;;;0.20;79.96
47636;BME280;33364;50.766;15.338;2023-02-03T11:17:21;94528.97;;;0.25;78.78
47636;BME280;33364;50.766;15.338;2023-02-03T11:19:52;94516.88;;;0.24;79.90
47636;BME280;33364;50.766;15.338;2023-02-03T11:22:29;94512.84;;;0.22;78.40
47636;BME280;33364;50.766;15.338;2023-02-03T11:24:56;94510.34;;;0.07;78.45
47636;BME280;33364;50.766;15.338;2023-02-03T11:27:24;94498.53;;;0.17;79.47
47636;BME280;33364;50.766;15.338;2023-02-03T11:30:08;94505.03;;;0.22;78.77
47636;BME280;33364;50.766;15.338;2023-02-03T11:32:37;94490.84;;;0.09;79.52
47636;BME280;33364;50.766;15.338;2023-02-03T11:35:23;94486.25;;;0.11;80.24
47636;BME280;33364;50.766;15.338;2023-02-03T11:37:52;94478.19;;;0.06;79.66
47636;BME280;33364;50.766;15.338;2023-02-03T11:40:32;94474.34;;;0.02;79.25
47636;BME280;33364;50.766;15.338;2023-02-03T11:43:09;94459.44;;;-0.04;80.54
47636;BME280;33364;50.766;15.338;2023-02-03T11:45:41;94456.66;;;0.04;81.07
47636;BME280;33364;50.766;15.338;2023-02-03T11:50:59;94447.72;;;0.20;80.85
47636;BME280;33364;50.766;15.338;2023-02-03T11:53:48;94449.63;;;0.33;81.18
47636;BME280;33364;50.766;15.338;2023-02-03T11:56:30;94441.13;;;0.31;80.72
47636;BME280;33364;50.766;15.338;2023-02-03T12:02:22;94427.53;;;0.42;81.56
47636;BME280;33364;50.766;15.338;2023-02-03T12:10:41;94409.69;;;0.52;81.01
47636;BME280;33364;50.766;15.338;2023-02-03T12:13:38;94397.28;;;0.68;83.22
47636;BME280;33364;50.766;15.338;2023-02-03T12:21:45;94368.16;;;0.84;81.72
47636;BME280;33364;50.766;15.338;2023-02-03T12:24:21;94355.22;;;0.56;81.16
47636;BME280;33364;50.766;15.338;2023-02-03T12:27:00;94375.34;;;0.62;83.05
47636;BME280;33364;50.766;15.338;2023-02-03T12:29:41;94354.44;;;0.62;81.99
47636;BME280;33364;50.766;15.338;2023-02-03T12:35:22;94352.03;;;0.67;82.30
47636;BME280;33364;50.766;15.338;2023-02-03T12:38:37;94341.13;;;0.64;80.76
47636;BME280;33364;50.766;15.338;2023-02-03T12:40:53;94342.38;;;0.75;82.96
47636;BME280;33364;50.766;15.338;2023-02-03T12:43:39;94326.69;;;0.68;81.15
47636;BME280;33364;50.766;15.338;2023-02-03T12:46:50;94321.84;;;0.58;81.82
47636;BME280;33364;50.766;15.338;2023-02-03T12:49:25;94299.72;;;0.61;81.31
47636;BME280;33364;50.766;15.338;2023-02-03T12:52:02;94298.28;;;0.51;81.75
47636;BME280;33364;50.766;15.338;2023-02-03T12:55:14;94297.72;;;0.69;83.20
47636;BME280;33364;50.766;15.338;2023-02-03T12:57:47;94309.63;;;0.85;83.41
47636;BME280;33364;50.766;15.338;2023-02-03T13:00:24;94290.69;;;0.77;82.80
47636;BME280;33364;50.766;15.338;2023-02-03T13:05:31;94284.84;;;0.95;82.28
47636;BME280;33364;50.766;15.338;2023-02-03T13:08:10;94289.50;;;0.93;82.70
47636;BME280;33364;50.766;15.338;2023-02-03T13:10:44;94291.13;;;1.00;83.01
47636;BME280;33364;50.766;15.338;2023-02-03T13:13:16;94275.63;;;0.85;81.98
47636;BME280;33364;50.766;15.338;2023-02-03T13:15:47;94268.16;;;0.96;82.88
47636;BME280;33364;50.766;15.338;2023-02-03T13:18:23;94262.53;;;0.99;82.40
47636;BME280;33364;50.766;15.338;2023-02-03T13:20:52;94236.56;;;1.17;83.73
47636;BME280;33364;50.766;15.338;2023-02-03T13:23:19;94229.91;;;1.28;81.77
47636;BME280;33364;50.766;15.338;2023-02-03T13:28:52;94209.53;;;1.43;81.99
47636;BME280;33364;50.766;15.338;2023-02-03T13:37:21;94196.88;;;1.34;82.32
47636;BME280;33364;50.766;15.338;2023-02-03T13:39:49;94232.72;;;1.26;82.79
47636;BME280;33364;50.766;15.338;2023-02-03T13:42:30;94437.03;;;1.18;82.46
47636;BME280;33364;50.766;15.338;2023-02-03T13:47:49;94429.75;;;0.94;79.98
47636;BME280;33364;50.766;15.338;2023-02-03T13:50:21;94411.41;;;0.80;80.58
47636;BME280;33364;50.766;15.338;2023-02-03T13:53:07;94412.78;;;0.69;81.58
47636;BME280;33364;50.766;15.338;2023-02-03T13:55:41;94422.59;;;0.61;80.75
47636;BME280;33364;50.766;15.338;2023-02-03T13:58:37;94423.38;;;0.54;80.35
47636;BME280;33364;50.766;15.338;2023-02-03T14:03:50;94399.53;;;0.84;80.40
47636;BME280;33364;50.766;15.338;2023-02-03T14:14:42;94387.09;;;1.00;79.36
47636;BME280;33364;50.766;15.338;2023-02-03T14:20:00;94379.47;;;1.25;77.74
47636;BME280;33364;50.766;15.338;2023-02-03T14:22:27;94385.72;;;1.37;78.28
47636;BME280;33364;50.766;15.338;2023-02-03T14:24:55;94369.81;;;1.39;76.76
47636;BME280;33364;50.766;15.338;2023-02-03T14:27:26;94356.91;;;1.31;77.61
47636;BME280;33364;50.766;15.338;2023-02-03T14:30:12;94350.09;;;1.30;77.38
47636;BME280;33364;50.766;15.338;2023-02-03T14:32:53;94355.72;;;1.26;77.19
47636;BME280;33364;50.766;15.338;2023-02-03T14:35:28;94358.75;;;1.23;76.95
47636;BME280;33364;50.766;15.338;2023-02-03T14:38:11;94334.78;;;1.40;77.81
47636;BME280;33364;50.766;15.338;2023-02-03T14:40:54;94337.19;;;1.55;76.64
47636;BME280;33364;50.766;15.338;2023-02-03T14:51:46;94321.88;;;1.45;81.12
47636;BME280;33364;50.766;15.338;2023-02-03T14:59:42;94347.66;;;1.41;76.67